createdAt,value
2018-09-01T00:01:33.112Z,19.30
2018-09-01T00:03:36.640Z,19.50
2018-09-01T00:05:40.325Z,19.20
2018-09-01T00:07:43.901Z,18.20
2018-09-01T00:09:47.420Z,17.80
2018-09-01T00:11:51.040Z,17.60
2018-09-01T00:13:54.628Z,17.40
2018-09-01T00:15:58.150Z,17.80
2018-09-01T00:18:01.971Z,18.40
2018-09-01T00:20:05.650Z,18.30
2018-09-01T00:22:09.254Z,18.50
2018-09-01T00:24:12.793Z,17.60
2018-09-01T00:26:16.310Z,17.50
2018-09-01T00:28:19.948Z,17.90
2018-09-01T00:30:23.480Z,18.40
2018-09-01T00:32:27.005Z,18.90
2018-09-01T00:34:30.656Z,18.40
2018-09-01T00:36:34.212Z,17.60
2018-09-01T00:38:43.086Z,18.10
2018-09-01T00:40:46.615Z,18.00
2018-09-01T00:42:50.195Z,18.70
2018-09-01T00:44:53.723Z,18.40
2018-09-01T00:46:57.260Z,18.20
2018-09-01T00:49:00.992Z,18.10
2018-09-01T00:51:04.534Z,18.20
2018-09-01T00:53:08.336Z,18.00
2018-09-01T00:55:45.593Z,17.80
2018-09-01T00:57:49.197Z,17.80
2018-09-01T00:59:52.849Z,17.50
2018-09-01T01:01:56.358Z,16.70
2018-09-01T01:03:59.898Z,16.70
2018-09-01T01:06:03.417Z,16.70
2018-09-01T01:08:07.146Z,17.40
2018-09-01T01:10:10.683Z,17.40
2018-09-01T01:12:14.421Z,17.10
2018-09-01T01:14:17.998Z,17.70
2018-09-01T01:16:21.676Z,17.10
2018-09-01T01:18:25.364Z,17.10
2018-09-01T01:20:28.919Z,16.30
2018-09-01T01:22:32.513Z,16.80
2018-09-01T01:24:36.277Z,16.90
2018-09-01T01:26:39.806Z,16.80
2018-09-01T01:28:43.370Z,16.20
2018-09-01T01:30:47.076Z,16.10
2018-09-01T01:32:50.604Z,16.10
2018-09-01T01:34:54.307Z,17.20
2018-09-01T01:36:57.798Z,17.10
2018-09-01T01:39:01.376Z,17.60
2018-09-01T01:41:04.903Z,17.60
2018-09-01T01:43:08.448Z,17.50
2018-09-01T01:45:12.057Z,17.90
2018-09-01T01:47:15.730Z,17.60
2018-09-01T01:49:19.331Z,17.00
2018-09-01T01:51:22.865Z,17.20
2018-09-01T01:53:26.780Z,16.80
2018-09-01T01:55:30.328Z,16.70
2018-09-01T01:57:38.103Z,17.40
2018-09-01T01:59:41.733Z,17.90
2018-09-01T02:01:45.408Z,17.60
2018-09-01T02:03:48.944Z,17.80
2018-09-01T02:05:52.491Z,17.30
2018-09-01T02:07:56.175Z,17.40
2018-09-01T02:09:59.762Z,17.70
2018-09-01T02:12:03.383Z,17.40
2018-09-01T02:14:07.008Z,17.20
2018-09-01T02:16:10.556Z,17.20
2018-09-01T02:18:14.095Z,16.90
2018-09-01T02:20:17.709Z,17.70
2018-09-01T02:22:21.298Z,17.70
2018-09-01T02:24:24.811Z,17.60
2018-09-01T02:26:28.439Z,18.00
2018-09-01T02:28:32.033Z,17.90
2018-09-01T02:30:35.621Z,18.30
2018-09-01T02:32:39.308Z,18.00
2018-09-01T02:34:42.848Z,18.60
2018-09-01T02:36:46.490Z,18.70
2018-09-01T02:38:50.062Z,18.50
2018-09-01T02:40:53.624Z,18.30
2018-09-01T02:42:57.222Z,18.10
2018-09-01T02:45:00.901Z,18.20
2018-09-01T02:47:04.565Z,18.10
2018-09-01T02:49:08.148Z,18.10
2018-09-01T02:51:11.711Z,17.40
2018-09-01T02:53:15.389Z,17.30
2018-09-01T02:55:19.015Z,17.00
2018-09-01T02:57:22.552Z,16.50
2018-09-01T02:59:26.144Z,15.60
2018-09-01T03:01:35.673Z,16.20
2018-09-01T03:03:39.296Z,16.60
2018-09-01T03:05:42.805Z,16.30
2018-09-01T03:07:46.383Z,16.50
2018-09-01T03:09:49.951Z,17.00
2018-09-01T03:11:54.406Z,17.30
2018-09-01T03:13:58.082Z,17.80
2018-09-01T03:16:01.640Z,17.80
2018-09-01T03:18:05.306Z,17.60
2018-09-01T03:20:09.081Z,17.30
2018-09-01T03:22:12.661Z,17.10
2018-09-01T03:24:16.287Z,17.00
2018-09-01T03:26:19.877Z,16.30
2018-09-01T03:28:23.367Z,17.00
2018-09-01T03:30:26.868Z,17.30
2018-09-01T03:32:30.420Z,17.50
2018-09-01T03:34:34.098Z,17.70
2018-09-01T03:36:37.631Z,17.30
2018-09-01T03:38:41.270Z,17.40
2018-09-01T03:40:44.840Z,17.30
2018-09-01T03:42:48.384Z,17.40
2018-09-01T03:44:51.876Z,17.20
2018-09-01T03:46:55.560Z,17.70
2018-09-01T03:49:00.527Z,17.10
2018-09-01T03:51:04.095Z,17.50
2018-09-01T03:53:07.701Z,17.40
2018-09-01T03:55:11.207Z,17.70
2018-09-01T03:57:14.733Z,17.90
2018-09-01T03:59:18.367Z,18.20
2018-09-01T04:01:22.000Z,18.00
2018-09-01T04:03:25.512Z,18.20
2018-09-01T04:05:29.184Z,18.60
2018-09-01T04:07:32.715Z,18.50
2018-09-01T04:09:36.381Z,18.60
2018-09-01T04:11:40.074Z,18.40
2018-09-01T04:13:43.635Z,18.30
2018-09-01T04:15:47.333Z,18.00
2018-09-01T04:17:50.861Z,17.80
2018-09-01T04:19:54.416Z,17.30
2018-09-01T04:21:57.989Z,17.80
2018-09-01T04:24:01.552Z,18.10
2018-09-01T04:26:05.175Z,17.80
2018-09-01T04:28:15.385Z,17.50
2018-09-01T04:30:19.161Z,17.70
2018-09-01T04:32:22.731Z,17.60
2018-09-01T04:34:26.309Z,17.50
2018-09-01T04:36:29.850Z,17.10
2018-09-01T04:38:33.359Z,16.90
2018-09-01T04:40:36.903Z,16.50
2018-09-01T04:42:40.476Z,16.90
2018-09-01T04:44:44.154Z,16.60
2018-09-01T04:46:47.745Z,16.00
2018-09-01T04:48:51.304Z,16.70
2018-09-01T04:50:54.851Z,16.90
2018-09-01T04:52:58.393Z,17.30
2018-09-01T04:55:01.928Z,17.40
2018-09-01T04:57:05.500Z,17.10
2018-09-01T04:59:09.110Z,16.20
2018-09-01T05:01:12.845Z,16.00
2018-09-01T05:03:16.183Z,16.70
2018-09-01T05:05:19.768Z,17.50
2018-09-01T05:07:29.879Z,17.00
2018-09-01T05:09:33.415Z,17.30
2018-09-01T05:11:36.977Z,17.20
2018-09-01T05:13:40.639Z,17.30
2018-09-01T05:15:44.219Z,17.20
2018-09-01T05:17:47.943Z,17.10
2018-09-01T05:19:51.416Z,16.90
2018-09-01T05:21:54.936Z,17.40
2018-09-01T05:23:58.477Z,17.40
2018-09-01T05:26:01.960Z,17.60
2018-09-01T05:28:05.796Z,17.30
2018-09-01T05:30:09.820Z,17.10
2018-09-01T05:32:13.386Z,17.20
2018-09-01T05:34:16.881Z,17.40
2018-09-01T05:36:20.365Z,17.50
2018-09-01T05:38:23.927Z,16.80
2018-09-01T05:40:27.442Z,16.50
2018-09-01T05:42:31.016Z,16.80
2018-09-01T05:44:34.527Z,16.90
2018-09-01T05:46:38.051Z,17.40
2018-09-01T05:48:41.747Z,17.30
2018-09-01T05:50:45.313Z,16.80
2018-09-01T05:52:48.848Z,16.70
2018-09-01T05:54:52.355Z,17.20
2018-09-01T05:56:55.980Z,17.40
2018-09-01T05:58:59.480Z,17.60
2018-09-01T06:01:03.086Z,17.20
2018-09-01T06:03:06.604Z,17.40
2018-09-01T06:05:10.105Z,16.80
2018-09-01T06:07:13.659Z,16.50
2018-09-01T06:09:17.168Z,16.00
2018-09-01T06:11:20.707Z,16.10
2018-09-01T06:13:24.277Z,16.30
2018-09-01T06:15:27.767Z,16.50
2018-09-01T06:17:31.321Z,17.10
2018-09-01T06:19:35.017Z,17.80
2018-09-01T06:21:38.479Z,17.40
2018-09-01T06:23:42.061Z,17.50
2018-09-01T06:25:45.769Z,17.70
2018-09-01T06:27:51.338Z,17.40
2018-09-01T06:29:54.872Z,17.20
2018-09-01T06:32:02.013Z,17.10
2018-09-01T06:34:05.603Z,17.20
2018-09-01T06:36:09.239Z,16.50
2018-09-01T06:38:12.891Z,16.40
2018-09-01T06:40:16.544Z,16.00
2018-09-01T06:42:20.200Z,16.90
2018-09-01T06:44:23.683Z,17.00
2018-09-01T06:46:27.192Z,16.50
2018-09-01T06:48:30.753Z,16.30
2018-09-01T06:50:34.362Z,16.50
2018-09-01T06:52:37.903Z,16.90
2018-09-01T06:54:41.392Z,16.90
2018-09-01T06:56:45.117Z,17.00
2018-09-01T06:58:49.288Z,17.50
2018-09-01T07:00:52.982Z,16.90
2018-09-01T07:02:57.275Z,16.00
2018-09-01T07:05:00.812Z,16.50
2018-09-01T07:07:04.580Z,17.30
2018-09-01T07:09:08.471Z,17.80
2018-09-01T07:11:12.172Z,17.90
2018-09-01T07:13:15.882Z,18.30
2018-09-01T07:15:19.442Z,18.50
2018-09-01T07:17:23.077Z,18.60
2018-09-01T07:19:26.654Z,18.20
2018-09-01T07:21:30.195Z,18.80
2018-09-01T07:23:33.702Z,18.20
2018-09-01T07:25:37.383Z,18.30
2018-09-01T07:27:41.135Z,18.70
2018-09-01T07:29:44.803Z,18.90
2018-09-01T07:31:48.467Z,18.60
2018-09-01T07:33:51.974Z,19.00
2018-09-01T07:35:55.517Z,19.20
2018-09-01T07:37:59.089Z,18.30
2018-09-01T07:40:02.649Z,18.70
2018-09-01T07:42:06.410Z,18.90
2018-09-01T07:44:10.120Z,18.70
2018-09-01T07:46:13.630Z,18.90
2018-09-01T07:48:17.145Z,19.10
2018-09-01T07:50:20.784Z,18.80
2018-09-01T07:52:24.439Z,18.60
2018-09-01T07:54:28.097Z,18.60
2018-09-01T07:56:31.607Z,18.80
2018-09-01T07:58:35.207Z,18.30
2018-09-01T08:00:38.736Z,18.50
2018-09-01T08:02:42.228Z,18.20
2018-09-01T08:04:45.911Z,18.70
2018-09-01T08:06:49.437Z,18.40
2018-09-01T08:08:53.036Z,18.50
2018-09-01T08:10:56.631Z,18.90
2018-09-01T08:13:00.288Z,19.20
2018-09-01T08:15:03.881Z,19.30
2018-09-01T08:17:07.466Z,19.00
2018-09-01T08:19:11.060Z,19.00
2018-09-01T08:21:14.530Z,18.90
2018-09-01T08:23:18.145Z,19.30
2018-09-01T08:25:21.795Z,19.70
2018-09-01T08:27:25.399Z,19.60
2018-09-01T08:29:28.975Z,19.30
2018-09-01T08:31:32.473Z,19.40
2018-09-01T08:33:36.151Z,19.60
2018-09-01T08:35:39.685Z,19.00
2018-09-01T08:37:43.180Z,19.10
2018-09-01T08:39:46.976Z,19.60
2018-09-01T08:41:50.466Z,19.50
2018-09-01T08:43:54.129Z,18.90
2018-09-01T08:45:57.737Z,18.70
2018-09-01T08:48:01.216Z,18.80
2018-09-01T08:50:04.998Z,18.70
2018-09-01T08:52:08.489Z,19.10
2018-09-01T08:54:12.101Z,18.90
2018-09-01T08:56:15.558Z,19.60
2018-09-01T08:58:19.179Z,19.30
2018-09-01T09:00:22.705Z,19.90
2018-09-01T09:02:26.211Z,19.80
2018-09-01T09:04:29.724Z,20.10
2018-09-01T09:06:33.269Z,20.00
2018-09-01T09:08:36.799Z,20.10
2018-09-01T09:10:40.456Z,20.20
2018-09-01T09:12:44.100Z,19.80
2018-09-01T09:14:47.804Z,19.90
2018-09-01T09:16:51.355Z,20.10
2018-09-01T09:18:54.861Z,20.00
2018-09-01T09:20:58.694Z,20.10
2018-09-01T09:23:02.259Z,20.30
2018-09-01T09:25:05.902Z,20.20
2018-09-01T09:27:09.450Z,20.20
2018-09-01T09:29:13.203Z,20.70
2018-09-01T09:31:16.856Z,20.90
2018-09-01T09:33:20.369Z,20.10
2018-09-01T09:35:23.953Z,19.70
2018-09-01T09:37:27.463Z,19.50
2018-09-01T09:39:31.045Z,19.90
2018-09-01T09:41:34.536Z,19.70
2018-09-01T09:43:38.156Z,19.50
2018-09-01T09:45:41.903Z,19.50
2018-09-01T09:47:45.409Z,19.90
2018-09-01T09:49:49.013Z,19.30
2018-09-01T09:51:52.526Z,19.60
2018-09-01T09:53:56.095Z,19.00
2018-09-01T09:55:59.706Z,19.20
2018-09-01T09:58:03.588Z,19.50
2018-09-01T10:00:08.153Z,20.00
2018-09-01T10:02:11.707Z,20.00
2018-09-01T10:04:15.235Z,19.20
2018-09-01T10:06:18.746Z,19.10
2018-09-01T10:08:22.270Z,19.40
2018-09-01T10:10:25.803Z,20.10
2018-09-01T10:12:29.375Z,20.60
2018-09-01T10:14:32.928Z,20.20
2018-09-01T10:16:36.592Z,19.90
2018-09-01T10:18:40.294Z,20.50
2018-09-01T10:20:43.907Z,20.80
2018-09-01T10:22:47.476Z,20.40
2018-09-01T10:24:51.016Z,20.00
2018-09-01T10:26:54.610Z,19.50
2018-09-01T10:28:58.107Z,20.40
2018-09-01T10:31:01.613Z,20.80
2018-09-01T10:33:05.418Z,19.90
2018-09-01T10:35:09.113Z,20.00
2018-09-01T10:37:12.624Z,20.60
2018-09-01T10:39:16.172Z,20.50
2018-09-01T10:41:19.895Z,20.60
2018-09-01T10:43:23.777Z,20.50
2018-09-01T10:45:27.377Z,20.90
2018-09-01T10:47:30.919Z,21.10
2018-09-01T10:49:34.440Z,19.70
2018-09-01T10:51:37.959Z,19.90
2018-09-01T10:53:41.480Z,19.70
2018-09-01T10:55:45.061Z,20.10
2018-09-01T10:57:48.683Z,19.80
2018-09-01T10:59:52.297Z,19.70
2018-09-01T11:01:55.739Z,19.90
2018-09-01T11:03:59.303Z,19.20
2018-09-01T11:06:02.809Z,19.70
2018-09-01T11:08:06.513Z,19.40
2018-09-01T11:10:10.015Z,19.30
2018-09-01T11:12:13.808Z,19.50
2018-09-01T11:14:17.694Z,19.50
2018-09-01T11:16:21.347Z,20.00
2018-09-01T11:18:24.910Z,19.50
2018-09-01T11:20:28.491Z,19.90
2018-09-01T11:22:32.187Z,20.50
2018-09-01T11:24:35.738Z,21.00
2018-09-01T11:26:39.259Z,21.00
2018-09-01T11:28:42.755Z,21.20
2018-09-01T11:30:46.435Z,20.70
2018-09-01T11:32:50.150Z,20.30
2018-09-01T11:34:53.691Z,20.60
2018-09-01T11:36:57.302Z,20.20
2018-09-01T11:39:00.936Z,19.90
2018-09-01T11:41:04.497Z,19.60
2018-09-01T11:43:08.243Z,20.00
2018-09-01T11:45:11.611Z,20.60
2018-09-01T11:47:15.172Z,20.90
2018-09-01T11:49:18.683Z,21.30
2018-09-01T11:51:22.202Z,20.90
2018-09-01T11:53:25.857Z,20.80
2018-09-01T11:55:29.453Z,20.00
2018-09-01T11:57:32.985Z,20.50
2018-09-01T11:59:36.523Z,20.90
2018-09-01T12:01:40.225Z,20.60
2018-09-01T12:03:43.734Z,20.30
2018-09-01T12:05:47.473Z,20.70
2018-09-01T12:07:51.047Z,20.60
2018-09-01T12:09:54.532Z,20.80
2018-09-01T12:11:58.030Z,21.50
2018-09-01T12:14:01.547Z,22.10
2018-09-01T12:16:05.790Z,21.50
2018-09-01T12:18:09.488Z,21.70
2018-09-01T12:20:12.992Z,20.40
2018-09-01T12:22:16.709Z,20.30
2018-09-01T12:24:20.195Z,20.60
2018-09-01T12:26:23.844Z,20.90
2018-09-01T12:28:27.475Z,20.20
2018-09-01T12:30:30.976Z,20.60
2018-09-01T12:32:34.528Z,21.00
2018-09-01T12:34:37.999Z,21.00
2018-09-01T12:36:41.635Z,21.20
2018-09-01T12:38:45.196Z,21.00
2018-09-01T12:40:48.682Z,20.90
2018-09-01T12:42:52.191Z,21.40
2018-09-01T12:44:55.700Z,21.70
2018-09-01T12:46:59.212Z,21.70
2018-09-01T12:49:02.915Z,21.10
2018-09-01T12:51:06.653Z,21.00
2018-09-01T12:53:10.255Z,20.80
2018-09-01T12:55:13.763Z,20.40
2018-09-01T12:57:17.428Z,20.70
2018-09-01T12:59:21.055Z,21.40
2018-09-01T13:01:24.739Z,21.80
2018-09-01T13:03:28.268Z,21.80
2018-09-01T13:05:31.830Z,21.80
2018-09-01T13:07:35.371Z,21.30
2018-09-01T13:09:38.896Z,21.00
2018-09-01T13:11:42.479Z,20.60
2018-09-01T13:13:46.006Z,20.90
2018-09-01T13:15:49.549Z,20.90
2018-09-01T13:17:53.210Z,20.50
2018-09-01T13:19:56.692Z,20.80
2018-09-01T13:22:00.214Z,20.90
2018-09-01T13:24:03.801Z,21.10
2018-09-01T13:26:07.530Z,20.80
2018-09-01T13:28:11.098Z,21.00
2018-09-01T13:30:14.732Z,21.60
2018-09-01T13:32:18.279Z,21.70
2018-09-01T13:34:21.966Z,21.90
2018-09-01T13:36:25.469Z,22.30
2018-09-01T13:38:29.110Z,22.20
2018-09-01T13:40:32.835Z,22.10
2018-09-01T13:42:36.336Z,21.70
2018-09-01T13:44:39.910Z,22.00
2018-09-01T13:46:43.410Z,21.70
2018-09-01T13:48:47.135Z,21.60
2018-09-01T13:50:50.665Z,21.70
2018-09-01T13:52:54.303Z,22.00
2018-09-01T13:54:57.832Z,21.80
2018-09-01T13:57:01.379Z,22.10
2018-09-01T13:59:05.392Z,21.40
2018-09-01T14:01:08.998Z,21.60
2018-09-01T14:03:12.524Z,22.00
2018-09-01T14:05:16.085Z,22.20
2018-09-01T14:07:19.576Z,21.90
2018-09-01T14:09:23.157Z,22.20
2018-09-01T14:11:26.694Z,21.70
2018-09-01T14:13:30.508Z,21.80
2018-09-01T14:15:34.007Z,21.50
2018-09-01T14:17:37.655Z,22.00
2018-09-01T14:19:41.238Z,21.40
2018-09-01T14:21:44.769Z,21.70
2018-09-01T14:23:48.682Z,21.80
2018-09-01T14:25:52.234Z,21.60
2018-09-01T14:27:55.814Z,21.40
2018-09-01T14:29:59.320Z,20.90
2018-09-01T14:32:03.665Z,20.80
2018-09-01T14:34:07.257Z,21.30
2018-09-01T14:36:10.771Z,21.70
2018-09-01T14:38:14.465Z,21.70
2018-09-01T14:40:18.058Z,22.30
2018-09-01T14:42:21.572Z,22.40
2018-09-01T14:44:25.096Z,21.80
2018-09-01T14:46:28.718Z,20.60
2018-09-01T14:48:32.336Z,20.40
2018-09-01T14:50:35.885Z,20.00
2018-09-01T14:52:39.396Z,20.40
2018-09-01T14:54:43.088Z,20.10
2018-09-01T14:56:46.716Z,20.00
2018-09-01T14:58:50.307Z,20.30
2018-09-01T15:00:53.843Z,19.90
2018-09-01T15:02:57.376Z,20.30
2018-09-01T15:05:00.899Z,20.90
2018-09-01T15:07:04.523Z,20.60
2018-09-01T15:09:08.374Z,19.80
2018-09-01T15:11:11.899Z,20.40
2018-09-01T15:13:15.414Z,20.50
2018-09-01T15:15:19.082Z,20.40
2018-09-01T15:17:22.635Z,21.00
2018-09-01T15:19:26.228Z,21.30
2018-09-01T15:21:29.708Z,21.80
2018-09-01T15:23:33.374Z,21.50
2018-09-01T15:25:36.925Z,21.40
2018-09-01T15:27:40.414Z,20.80
2018-09-01T15:29:44.111Z,20.40
2018-09-01T15:31:47.614Z,20.70
2018-09-01T15:33:51.152Z,20.20
2018-09-01T15:35:54.804Z,20.10
2018-09-01T15:37:58.319Z,20.50
2018-09-01T15:40:01.877Z,21.20
2018-09-01T15:42:05.674Z,21.60
2018-09-01T15:44:09.263Z,22.00
2018-09-01T15:46:12.827Z,22.30
2018-09-01T15:48:16.495Z,22.20
2018-09-01T15:50:20.016Z,22.20
2018-09-01T15:52:23.657Z,22.30
2018-09-01T15:54:27.599Z,22.40
2018-09-01T15:56:31.220Z,22.70
2018-09-01T15:58:34.781Z,22.70
2018-09-01T16:00:38.405Z,22.80
2018-09-01T16:02:42.007Z,22.90
2018-09-01T16:04:45.604Z,22.90
2018-09-01T16:06:49.097Z,22.90
2018-09-01T16:08:52.572Z,23.00
2018-09-01T16:10:56.166Z,22.40
2018-09-01T16:12:59.676Z,22.50
2018-09-01T16:15:03.333Z,22.70
2018-09-01T16:17:07.127Z,22.40
2018-09-01T16:19:10.700Z,22.60
2018-09-01T16:21:14.255Z,22.80
2018-09-01T16:23:17.756Z,22.90
2018-09-01T16:25:21.345Z,23.00
2018-09-01T16:27:24.883Z,23.20
2018-09-01T16:29:28.591Z,23.20
2018-09-01T16:31:32.101Z,23.10
2018-09-01T16:33:35.696Z,23.10
2018-09-01T16:35:39.393Z,23.10
2018-09-01T16:37:43.112Z,23.00
2018-09-01T16:39:46.854Z,23.00
2018-09-01T16:41:50.415Z,23.10
2018-09-01T16:43:53.969Z,23.10
2018-09-01T16:45:57.553Z,23.10
2018-09-01T16:48:01.308Z,22.90
2018-09-01T16:50:04.943Z,22.70
2018-09-01T16:52:08.558Z,22.80
2018-09-01T16:54:12.051Z,22.80
2018-09-01T16:56:15.634Z,22.80
2018-09-01T16:58:19.350Z,22.90
2018-09-01T17:00:22.999Z,22.90
2018-09-01T17:02:27.084Z,22.90
2018-09-01T17:04:30.855Z,23.00
2018-09-01T17:06:34.668Z,23.00
2018-09-01T17:08:38.208Z,22.80
2018-09-01T17:10:41.787Z,22.60
2018-09-01T17:12:45.492Z,22.60
2018-09-01T17:14:49.157Z,22.60
2018-09-01T17:16:52.953Z,22.50
2018-09-01T17:18:56.688Z,22.20
2018-09-01T17:21:00.285Z,22.10
2018-09-01T17:23:04.022Z,22.40
2018-09-01T17:25:07.756Z,22.40
2018-09-01T17:27:11.391Z,22.50
2018-09-01T17:29:15.074Z,22.70
2018-09-01T17:31:18.707Z,22.70
2018-09-01T17:33:22.435Z,22.80
2018-09-01T17:35:26.469Z,22.80
2018-09-01T17:37:30.157Z,22.80
2018-09-01T17:39:33.895Z,22.80
2018-09-01T17:41:38.781Z,22.80
2018-09-01T17:43:42.510Z,22.90
2018-09-01T17:45:46.060Z,22.90
2018-09-01T17:47:49.667Z,22.90
2018-09-01T17:49:53.242Z,22.90
2018-09-01T17:51:56.792Z,22.80
2018-09-01T17:54:00.295Z,22.80
2018-09-01T17:56:03.914Z,22.70
2018-09-01T17:58:07.568Z,22.70
2018-09-01T18:00:11.233Z,22.70
2018-09-01T18:02:15.170Z,22.70
2018-09-01T18:04:18.806Z,22.70
2018-09-01T18:06:22.509Z,22.80
2018-09-01T18:08:26.171Z,22.30
2018-09-01T18:10:30.009Z,22.00
2018-09-01T18:12:33.580Z,22.10
2018-09-01T18:14:37.098Z,22.20
2018-09-01T18:16:41.000Z,22.30
2018-09-01T18:18:44.634Z,22.20
2018-09-01T18:20:48.248Z,22.30
2018-09-01T18:22:51.976Z,21.90
2018-09-01T18:24:55.462Z,21.60
2018-09-01T18:26:59.056Z,21.70
2018-09-01T18:29:02.590Z,21.90
2018-09-01T18:31:06.428Z,21.80
2018-09-01T18:33:09.970Z,21.80
2018-09-01T18:35:13.611Z,22.00
2018-09-01T18:37:17.162Z,22.10
2018-09-01T18:39:21.062Z,22.10
2018-09-01T18:41:24.634Z,22.10
2018-09-01T18:43:28.314Z,22.00
2018-09-01T18:45:31.868Z,22.00
2018-09-01T18:47:35.560Z,22.00
2018-09-01T18:49:39.149Z,22.00
2018-09-01T18:51:42.822Z,22.00
2018-09-01T18:53:46.381Z,21.80
2018-09-01T18:55:49.920Z,21.80
2018-09-01T18:57:53.549Z,21.80
2018-09-01T18:59:57.291Z,21.90
2018-09-01T19:02:01.268Z,22.00
2018-09-01T19:04:05.005Z,22.00
2018-09-01T19:06:08.553Z,22.00
2018-09-01T19:08:12.213Z,22.00
2018-09-01T19:10:15.724Z,22.00
2018-09-01T19:12:19.331Z,22.10
2018-09-01T19:14:23.030Z,22.10
2018-09-01T19:16:26.599Z,22.10
2018-09-01T19:18:30.145Z,22.10
2018-09-01T19:20:33.716Z,22.10
2018-09-01T19:22:37.374Z,22.10
2018-09-01T19:24:41.026Z,22.20
2018-09-01T19:26:44.669Z,22.00
2018-09-01T19:28:48.447Z,22.00
2018-09-01T19:30:52.080Z,22.00
2018-09-01T19:32:55.674Z,21.90
2018-09-01T19:34:59.348Z,22.00
2018-09-01T19:37:02.913Z,22.00
2018-09-01T19:39:09.172Z,22.10
2018-09-01T19:41:12.719Z,22.10
2018-09-01T19:43:16.309Z,22.10
2018-09-01T19:45:20.051Z,22.00
2018-09-01T19:47:23.749Z,21.90
2018-09-01T19:49:27.331Z,22.00
2018-09-01T19:51:30.984Z,21.90
2018-09-01T19:53:34.560Z,22.00
2018-09-01T19:55:38.389Z,22.00
2018-09-01T19:57:41.986Z,22.10
2018-09-01T19:59:45.715Z,22.00
2018-09-01T20:01:49.532Z,22.00
2018-09-01T20:03:53.433Z,22.00
2018-09-01T20:05:57.158Z,22.00
2018-09-01T20:08:00.831Z,21.90
2018-09-01T20:10:04.491Z,22.00
2018-09-01T20:12:08.073Z,22.00
2018-09-01T20:14:11.983Z,22.00
2018-09-01T20:16:15.534Z,22.00
2018-09-01T20:18:19.161Z,21.60
2018-09-01T20:20:22.742Z,21.30
2018-09-01T20:22:26.372Z,21.30
2018-09-01T20:24:30.029Z,21.50
2018-09-01T20:26:33.654Z,21.60
2018-09-01T20:28:37.332Z,21.60
2018-09-01T20:30:40.987Z,21.50
2018-09-01T20:32:44.588Z,21.40
2018-09-01T20:34:48.748Z,21.40
2018-09-01T20:36:52.390Z,21.50
2018-09-01T20:38:55.985Z,21.50
2018-09-01T20:40:59.556Z,21.50
2018-09-01T20:43:03.556Z,21.50
2018-09-01T20:45:07.271Z,21.50
2018-09-01T20:47:10.866Z,21.40
2018-09-01T20:49:14.375Z,21.20
2018-09-01T20:51:17.908Z,21.20
2018-09-01T20:53:21.656Z,21.30
2018-09-01T20:55:25.316Z,21.40
2018-09-01T20:57:28.916Z,21.30
2018-09-01T20:59:32.762Z,21.30
2018-09-01T21:01:36.407Z,21.40
2018-09-01T21:03:40.022Z,21.30
2018-09-01T21:05:43.531Z,21.30
2018-09-01T21:07:47.512Z,21.20
2018-09-01T21:09:51.067Z,21.20
2018-09-01T21:11:54.749Z,21.30
2018-09-01T21:13:58.405Z,21.20
2018-09-01T21:16:02.056Z,21.00
2018-09-01T21:18:05.935Z,21.00
2018-09-01T21:20:09.562Z,21.00
2018-09-01T21:22:13.116Z,21.10
2018-09-01T21:24:16.735Z,21.10
2018-09-01T21:26:20.219Z,21.20
2018-09-01T21:28:23.748Z,21.20
2018-09-01T21:30:27.276Z,21.20
2018-09-01T21:32:30.899Z,21.30
2018-09-01T21:34:34.483Z,21.30
2018-09-01T21:36:38.136Z,21.30
2018-09-01T21:38:41.775Z,21.40
2018-09-01T21:40:45.332Z,21.30
2018-09-01T21:42:49.088Z,21.20
2018-09-01T21:44:52.756Z,21.10
2018-09-01T21:46:56.311Z,21.20
2018-09-01T21:48:59.925Z,21.30
2018-09-01T21:51:03.926Z,21.30
2018-09-01T21:53:07.622Z,21.10
2018-09-01T21:55:11.169Z,21.10
2018-09-01T21:57:14.978Z,21.00
2018-09-01T21:59:18.669Z,21.00
2018-09-01T22:01:27.675Z,21.10
2018-09-01T22:03:31.210Z,20.70
2018-09-01T22:05:34.931Z,20.40
2018-09-01T22:07:38.584Z,20.30
2018-09-01T22:09:42.215Z,20.20
2018-09-01T22:11:45.921Z,19.90
2018-09-01T22:13:49.594Z,20.20
2018-09-01T22:15:53.181Z,20.30
2018-09-01T22:17:56.784Z,20.40
2018-09-01T22:20:00.537Z,20.20
2018-09-01T22:22:04.246Z,20.20
2018-09-01T22:24:07.836Z,20.30
2018-09-01T22:26:11.464Z,20.30
2018-09-01T22:28:15.996Z,20.30
2018-09-01T22:30:20.023Z,20.50
2018-09-01T22:32:23.589Z,20.20
2018-09-01T22:34:27.671Z,20.10
2018-09-01T22:36:31.256Z,20.20
2018-09-01T22:38:34.925Z,20.30
2018-09-01T22:40:38.613Z,20.30
2018-09-01T22:42:42.143Z,20.40
2018-09-01T22:44:45.766Z,20.50
2018-09-01T22:46:49.535Z,20.50
2018-09-01T22:48:53.687Z,20.20
2018-09-01T22:50:57.229Z,20.30
2018-09-01T22:53:00.807Z,20.40
2018-09-01T22:55:04.476Z,20.40
2018-09-01T22:57:08.029Z,20.30
2018-09-01T22:59:11.607Z,19.60
2018-09-01T23:01:15.375Z,19.80
2018-09-01T23:03:19.046Z,19.90
2018-09-01T23:05:22.561Z,20.10
2018-09-01T23:07:26.113Z,20.00
2018-09-01T23:09:29.757Z,20.00
2018-09-01T23:11:33.358Z,20.00
2018-09-01T23:13:37.124Z,19.90
2018-09-01T23:15:40.722Z,19.90
2018-09-01T23:17:44.240Z,20.00
2018-09-01T23:19:47.972Z,20.00
2018-09-01T23:21:51.803Z,20.20
2018-09-01T23:23:55.351Z,20.20
2018-09-01T23:25:59.261Z,20.20
2018-09-01T23:28:03.536Z,20.40
2018-09-01T23:30:07.296Z,20.50
2018-09-01T23:32:10.858Z,20.50
2018-09-01T23:34:14.631Z,20.60
2018-09-01T23:36:18.576Z,20.50
2018-09-01T23:38:22.166Z,20.50
2018-09-01T23:40:25.738Z,20.50
2018-09-01T23:42:29.291Z,20.50
2018-09-01T23:44:32.959Z,20.30
2018-09-01T23:46:36.600Z,20.00
2018-09-01T23:48:40.187Z,19.90
2018-09-01T23:50:43.787Z,19.60
2018-09-01T23:52:47.504Z,19.70
2018-09-01T23:54:51.075Z,19.60
2018-09-01T23:56:54.613Z,19.50
2018-09-01T23:58:58.400Z,19.30
